createdAt,value
2023-03-26T00:00:02.276Z,2.42
2023-03-26T00:03:18.226Z,3.25
2023-03-26T00:06:22.962Z,3.03
2023-03-26T00:09:24.457Z,1.58
2023-03-26T00:12:26.207Z,2.78
2023-03-26T00:15:27.654Z,1.70
2023-03-26T00:18:34.895Z,2.25
2023-03-26T14:37:58.514Z,3.78
2023-03-26T14:41:06.210Z,4.10
2023-03-26T14:44:47.727Z,1.85
2023-03-26T14:48:02.746Z,5.13
2023-03-26T14:51:19.309Z,7.93
2023-03-26T14:54:26.981Z,5.97
2023-03-26T14:57:45.835Z,1.27
2023-03-26T15:01:08.830Z,4.18
2023-03-26T15:04:39.885Z,1.67
2023-03-26T15:08:02.633Z,3.50
2023-03-26T15:11:41.658Z,6.00
2023-03-26T15:15:20.969Z,2.20
2023-03-26T15:18:49.913Z,3.30
2023-03-26T15:22:12.810Z,2.63
2023-03-26T15:25:32.280Z,4.25
2023-03-26T15:29:05.965Z,1.33
2023-03-26T15:32:16.675Z,0.77
2023-03-26T15:35:36.479Z,1.90
2023-03-26T15:38:59.515Z,3.20
2023-03-26T15:42:11.655Z,1.65
2023-03-26T15:45:36.280Z,2.08
2023-03-26T15:48:50.000Z,1.40
2023-03-26T15:51:58.222Z,2.60
2023-03-26T15:55:27.649Z,3.88
2023-03-26T15:58:42.079Z,1.75
2023-03-26T16:02:15.995Z,2.97
2023-03-26T16:05:34.809Z,2.65
2023-03-26T16:08:54.616Z,1.02
2023-03-26T16:12:03.262Z,1.23
2023-03-26T16:15:07.415Z,2.47
2023-03-26T16:18:12.231Z,1.05
2023-03-26T16:21:34.257Z,3.03
2023-03-26T16:24:39.895Z,3.60
2023-03-26T16:27:41.853Z,1.80
2023-03-26T16:30:45.955Z,1.48
2023-03-26T16:33:59.828Z,1.77
2023-03-26T16:37:08.831Z,8.98
2023-03-26T16:40:20.701Z,5.55
2023-03-26T16:43:34.060Z,2.85
2023-03-26T16:47:03.503Z,2.75
2023-03-26T16:50:29.811Z,5.78
2023-03-26T19:58:59.130Z,2.72
2023-03-26T20:02:00.918Z,6.13
2023-03-26T20:05:02.497Z,3.47
2023-03-26T20:08:13.474Z,3.78
2023-03-26T20:11:22.739Z,4.15
2023-03-26T20:14:26.567Z,1.67
2023-03-26T20:17:30.627Z,3.05
2023-03-26T20:20:34.160Z,3.50
2023-03-26T20:23:35.615Z,5.40
2023-03-26T20:26:37.083Z,2.17
2023-03-26T20:29:38.688Z,2.88
2023-03-26T20:32:43.195Z,2.75
2023-03-26T20:35:46.155Z,2.70
2023-03-26T20:38:47.978Z,2.13
2023-03-26T20:41:51.229Z,1.15
2023-03-26T20:44:52.687Z,2.55
2023-03-26T20:47:54.350Z,2.25
2023-03-26T20:50:57.010Z,1.58
2023-03-26T20:53:58.567Z,1.77
2023-03-26T20:57:00.315Z,1.48
2023-03-26T21:00:01.872Z,2.70
2023-03-26T21:03:03.445Z,5.90
2023-03-26T21:06:10.370Z,2.90
2023-03-26T21:09:15.162Z,4.68
2023-03-26T21:12:27.426Z,3.05
2023-03-26T21:15:29.459Z,2.00
2023-03-26T21:18:31.284Z,2.70
2023-03-26T21:21:43.840Z,3.30
2023-03-26T21:25:01.444Z,2.40
2023-03-26T21:28:17.196Z,1.85
2023-03-26T21:31:24.104Z,2.35
2023-03-26T21:34:27.304Z,2.13
2023-03-26T21:37:29.134Z,1.20
2023-03-26T21:40:30.900Z,1.63
2023-03-26T21:43:32.442Z,2.90
2023-03-26T21:46:34.519Z,3.15
2023-03-26T21:49:37.192Z,2.92
2023-03-26T21:52:47.020Z,2.08
2023-03-26T21:56:03.571Z,1.73
2023-03-26T21:59:20.289Z,2.17
2023-03-26T22:02:35.786Z,1.90
2023-03-26T22:05:37.280Z,2.75
2023-03-26T22:08:41.353Z,1.60
2023-03-26T22:11:43.259Z,1.50
2023-03-26T22:14:44.870Z,2.60
2023-03-26T22:17:53.632Z,5.22
2023-03-26T22:20:56.611Z,2.38
2023-03-26T22:23:58.230Z,2.17
2023-03-26T22:26:59.707Z,1.77
2023-03-26T22:30:01.211Z,1.92
2023-03-26T22:33:02.788Z,2.33
2023-03-26T22:36:04.644Z,1.60
2023-03-26T22:39:06.977Z,9.55
2023-03-26T22:42:08.759Z,9.40
2023-03-26T22:45:10.793Z,9.27
2023-03-26T22:48:12.382Z,8.43
2023-03-26T22:51:15.192Z,8.20
2023-03-26T22:54:16.755Z,9.95
2023-03-26T22:57:18.701Z,7.15
2023-03-26T23:00:22.202Z,8.73
2023-03-26T23:03:35.193Z,9.50
2023-03-26T23:06:37.177Z,4.55
2023-03-26T23:09:38.698Z,7.05
2023-03-26T23:12:41.438Z,7.10
2023-03-26T23:15:43.487Z,9.68
2023-03-26T23:18:45.144Z,7.72
2023-03-26T23:21:46.629Z,10.23
2023-03-26T23:24:48.325Z,8.60
2023-03-26T23:27:50.432Z,9.57
2023-03-26T23:30:53.604Z,7.20
2023-03-26T23:33:55.379Z,14.65
2023-03-26T23:36:57.957Z,8.13
2023-03-26T23:40:00.374Z,7.47
2023-03-26T23:43:01.895Z,5.53
2023-03-26T23:46:05.291Z,6.53
2023-03-26T23:49:07.219Z,5.28
2023-03-26T23:52:09.777Z,6.45
2023-03-26T23:55:11.289Z,9.10
2023-03-26T23:58:14.258Z,5.78
